sensor_id;sensor_type;location;lat;lon;timestamp;P1;durP1;ratioP1;P2;durP2;ratioP2
14799;SDS011;7491;57.750;11.970;2023-03-20T00:06:02;126.70;;;54.50;;
14799;SDS011;7491;57.750;11.970;2023-03-20T00:08:38;118.75;;;50.53;;
14799;SDS011;7491;57.750;11.970;2023-03-20T00:15:27;114.65;;;50.90;;
14799;SDS011;7491;57.750;11.970;2023-03-20T00:18:46;122.65;;;50.75;;
14799;SDS011;7491;57.750;11.970;2023-03-20T00:21:32;108.70;;;48.38;;
14799;SDS011;7491;57.750;11.970;2023-03-20T00:24:55;109.80;;;48.88;;
14799;SDS011;7491;57.750;11.970;2023-03-20T00:27:24;159.65;;;53.20;;
14799;SDS011;7491;57.750;11.970;2023-03-20T00:30:00;110.68;;;49.50;;
14799;SDS011;7491;57.750;11.970;2023-03-20T00:32:59;105.55;;;48.50;;
14799;SDS011;7491;57.750;11.970;2023-03-20T00:45:37;108.88;;;48.92;;
14799;SDS011;7491;57.750;11.970;2023-03-20T00:48:47;108.32;;;45.97;;
14799;SDS011;7491;57.750;11.970;2023-03-20T00:51:35;112.95;;;47.75;;
14799;SDS011;7491;57.750;11.970;2023-03-20T00:54:10;110.70;;;47.35;;
14799;SDS011;7491;57.750;11.970;2023-03-20T00:59:30;135.68;;;62.05;;
14799;SDS011;7491;57.750;11.970;2023-03-20T01:02:01;128.15;;;52.92;;
14799;SDS011;7491;57.750;11.970;2023-03-20T01:04:30;116.10;;;51.25;;
14799;SDS011;7491;57.750;11.970;2023-03-20T01:07:11;152.15;;;53.33;;
14799;SDS011;7491;57.750;11.970;2023-03-20T01:09:48;133.20;;;50.42;;
14799;SDS011;7491;57.750;11.970;2023-03-20T01:12:33;127.43;;;47.95;;
14799;SDS011;7491;57.750;11.970;2023-03-20T01:16:44;110.55;;;46.95;;
14799;SDS011;7491;57.750;11.970;2023-03-20T01:19:14;124.70;;;49.42;;
14799;SDS011;7491;57.750;11.970;2023-03-20T01:21:30;108.65;;;44.65;;
14799;SDS011;7491;57.750;11.970;2023-03-20T01:24:01;159.98;;;50.55;;
14799;SDS011;7491;57.750;11.970;2023-03-20T01:26:30;167.18;;;51.35;;
14799;SDS011;7491;57.750;11.970;2023-03-20T01:29:04;121.53;;;46.65;;
14799;SDS011;7491;57.750;11.970;2023-03-20T01:31:38;131.32;;;46.35;;
14799;SDS011;7491;57.750;11.970;2023-03-20T01:34:07;133.15;;;46.95;;
14799;SDS011;7491;57.750;11.970;2023-03-20T01:36:35;141.60;;;45.85;;
14799;SDS011;7491;57.750;11.970;2023-03-20T01:39:03;181.40;;;49.85;;
14799;SDS011;7491;57.750;11.970;2023-03-20T01:41:36;122.70;;;43.85;;
14799;SDS011;7491;57.750;11.970;2023-03-20T01:44:15;170.88;;;46.60;;
14799;SDS011;7491;57.750;11.970;2023-03-20T01:46:46;164.60;;;47.20;;
14799;SDS011;7491;57.750;11.970;2023-03-20T01:52:19;166.25;;;47.25;;
14799;SDS011;7491;57.750;11.970;2023-03-20T01:54:46;132.63;;;46.42;;
14799;SDS011;7491;57.750;11.970;2023-03-20T01:57:39;168.43;;;49.47;;
14799;SDS011;7491;57.750;11.970;2023-03-20T02:00:36;141.75;;;48.67;;
14799;SDS011;7491;57.750;11.970;2023-03-20T02:03:46;120.35;;;44.63;;
14799;SDS011;7491;57.750;11.970;2023-03-20T02:10:09;164.88;;;49.15;;
14799;SDS011;7491;57.750;11.970;2023-03-20T02:15:30;157.80;;;45.50;;
14799;SDS011;7491;57.750;11.970;2023-03-20T02:18:02;181.13;;;50.03;;
14799;SDS011;7491;57.750;11.970;2023-03-20T02:20:32;162.38;;;44.58;;
14799;SDS011;7491;57.750;11.970;2023-03-20T02:24:19;142.85;;;44.75;;
14799;SDS011;7491;57.750;11.970;2023-03-20T02:26:35;160.50;;;42.63;;
14799;SDS011;7491;57.750;11.970;2023-03-20T02:29:35;385.08;;;54.38;;
14799;SDS011;7491;57.750;11.970;2023-03-20T02:38:52;144.65;;;39.65;;
14799;SDS011;7491;57.750;11.970;2023-03-20T02:41:43;132.35;;;37.97;;
14799;SDS011;7491;57.750;11.970;2023-03-20T02:44:37;119.88;;;38.40;;
14799;SDS011;7491;57.750;11.970;2023-03-20T02:47:25;102.07;;;35.70;;
14799;SDS011;7491;57.750;11.970;2023-03-20T02:50:06;154.60;;;36.88;;
14799;SDS011;7491;57.750;11.970;2023-03-20T02:52:56;172.63;;;35.88;;
14799;SDS011;7491;57.750;11.970;2023-03-20T02:55:35;116.32;;;32.22;;
14799;SDS011;7491;57.750;11.970;2023-03-20T02:58:20;98.50;;;33.08;;
14799;SDS011;7491;57.750;11.970;2023-03-20T03:00:54;84.07;;;31.13;;
14799;SDS011;7491;57.750;11.970;2023-03-20T03:03:36;95.57;;;30.38;;
14799;SDS011;7491;57.750;11.970;2023-03-20T03:06:16;130.50;;;32.83;;
14799;SDS011;7491;57.750;11.970;2023-03-20T03:08:59;84.30;;;26.88;;
14799;SDS011;7491;57.750;11.970;2023-03-20T03:11:52;71.85;;;27.00;;
14799;SDS011;7491;57.750;11.970;2023-03-20T03:14:34;91.22;;;28.35;;
14799;SDS011;7491;57.750;11.970;2023-03-20T03:17:05;102.75;;;29.33;;
14799;SDS011;7491;57.750;11.970;2023-03-20T03:19:34;89.13;;;26.25;;
14799;SDS011;7491;57.750;11.970;2023-03-20T03:22:23;142.57;;;30.55;;
14799;SDS011;7491;57.750;11.970;2023-03-20T03:24:55;90.97;;;27.42;;
14799;SDS011;7491;57.750;11.970;2023-03-20T03:27:27;132.20;;;28.23;;
14799;SDS011;7491;57.750;11.970;2023-03-20T03:30:23;86.45;;;26.13;;
14799;SDS011;7491;57.750;11.970;2023-03-20T03:34:04;78.00;;;25.38;;
14799;SDS011;7491;57.750;11.970;2023-03-20T03:37:06;88.70;;;26.40;;
14799;SDS011;7491;57.750;11.970;2023-03-20T03:44:01;213.10;;;28.67;;
14799;SDS011;7491;57.750;11.970;2023-03-20T03:47:23;143.55;;;27.23;;
14799;SDS011;7491;57.750;11.970;2023-03-20T03:50:24;92.90;;;24.10;;
14799;SDS011;7491;57.750;11.970;2023-03-20T03:53:21;106.50;;;24.10;;
14799;SDS011;7491;57.750;11.970;2023-03-20T03:55:53;86.05;;;22.40;;
14799;SDS011;7491;57.750;11.970;2023-03-20T03:58:27;120.13;;;24.65;;
14799;SDS011;7491;57.750;11.970;2023-03-20T04:01:11;236.73;;;26.58;;
14799;SDS011;7491;57.750;11.970;2023-03-20T04:03:44;115.25;;;20.27;;
14799;SDS011;7491;57.750;11.970;2023-03-20T04:06:19;66.13;;;18.73;;
14799;SDS011;7491;57.750;11.970;2023-03-20T04:09:18;124.40;;;20.20;;
14799;SDS011;7491;57.750;11.970;2023-03-20T04:11:51;79.47;;;18.40;;
14799;SDS011;7491;57.750;11.970;2023-03-20T04:14:38;82.55;;;18.20;;
14799;SDS011;7491;57.750;11.970;2023-03-20T04:17:14;77.10;;;18.02;;
14799;SDS011;7491;57.750;11.970;2023-03-20T04:22:58;98.60;;;18.73;;
14799;SDS011;7491;57.750;11.970;2023-03-20T04:25:28;78.28;;;17.05;;
14799;SDS011;7491;57.750;11.970;2023-03-20T04:27:57;138.15;;;19.55;;
14799;SDS011;7491;57.750;11.970;2023-03-20T04:30:24;72.75;;;16.48;;
14799;SDS011;7491;57.750;11.970;2023-03-20T04:32:55;101.15;;;17.50;;
14799;SDS011;7491;57.750;11.970;2023-03-20T04:35:25;79.78;;;17.98;;
14799;SDS011;7491;57.750;11.970;2023-03-20T04:37:55;70.63;;;17.20;;
14799;SDS011;7491;57.750;11.970;2023-03-20T04:40:25;68.25;;;16.85;;
14799;SDS011;7491;57.750;11.970;2023-03-20T04:42:52;146.15;;;21.58;;
14799;SDS011;7491;57.750;11.970;2023-03-20T04:45:19;94.85;;;19.90;;
14799;SDS011;7491;57.750;11.970;2023-03-20T04:47:45;96.80;;;17.80;;
14799;SDS011;7491;57.750;11.970;2023-03-20T04:50:14;97.32;;;18.05;;
14799;SDS011;7491;57.750;11.970;2023-03-20T04:52:41;96.68;;;18.73;;
14799;SDS011;7491;57.750;11.970;2023-03-20T04:55:08;107.43;;;20.67;;
14799;SDS011;7491;57.750;11.970;2023-03-20T04:57:35;151.93;;;20.92;;
14799;SDS011;7491;57.750;11.970;2023-03-20T05:00:02;115.88;;;19.25;;
14799;SDS011;7491;57.750;11.970;2023-03-20T05:02:29;102.93;;;19.20;;
14799;SDS011;7491;57.750;11.970;2023-03-20T05:04:56;119.50;;;19.88;;
14799;SDS011;7491;57.750;11.970;2023-03-20T05:07:24;136.23;;;20.17;;
14799;SDS011;7491;57.750;11.970;2023-03-20T05:09:51;99.22;;;18.02;;
14799;SDS011;7491;57.750;11.970;2023-03-20T05:12:18;111.97;;;19.02;;
14799;SDS011;7491;57.750;11.970;2023-03-20T05:14:45;83.22;;;18.23;;
14799;SDS011;7491;57.750;11.970;2023-03-20T05:17:12;76.57;;;17.23;;
14799;SDS011;7491;57.750;11.970;2023-03-20T05:19:39;125.53;;;20.30;;
14799;SDS011;7491;57.750;11.970;2023-03-20T05:22:07;61.22;;;17.05;;
14799;SDS011;7491;57.750;11.970;2023-03-20T05:24:35;48.67;;;15.00;;
14799;SDS011;7491;57.750;11.970;2023-03-20T05:27:02;40.38;;;14.20;;
14799;SDS011;7491;57.750;11.970;2023-03-20T05:29:29;32.88;;;14.45;;
14799;SDS011;7491;57.750;11.970;2023-03-20T05:31:55;34.33;;;13.85;;
14799;SDS011;7491;57.750;11.970;2023-03-20T05:34:22;39.45;;;12.88;;
14799;SDS011;7491;57.750;11.970;2023-03-20T05:36:49;49.10;;;13.40;;
14799;SDS011;7491;57.750;11.970;2023-03-20T05:39:15;40.35;;;13.55;;
14799;SDS011;7491;57.750;11.970;2023-03-20T05:41:44;40.75;;;10.80;;
14799;SDS011;7491;57.750;11.970;2023-03-20T05:44:11;36.58;;;12.00;;
14799;SDS011;7491;57.750;11.970;2023-03-20T05:46:37;27.17;;;10.70;;
14799;SDS011;7491;57.750;11.970;2023-03-20T05:49:04;24.25;;;9.73;;
14799;SDS011;7491;57.750;11.970;2023-03-20T05:51:31;28.90;;;11.65;;
14799;SDS011;7491;57.750;11.970;2023-03-20T05:53:57;33.42;;;10.27;;
14799;SDS011;7491;57.750;11.970;2023-03-20T05:56:24;39.55;;;13.95;;
14799;SDS011;7491;57.750;11.970;2023-03-20T05:58:52;40.55;;;12.20;;
14799;SDS011;7491;57.750;11.970;2023-03-20T06:01:19;38.92;;;12.40;;
14799;SDS011;7491;57.750;11.970;2023-03-20T06:03:46;44.92;;;12.73;;
14799;SDS011;7491;57.750;11.970;2023-03-20T06:06:13;32.72;;;10.93;;
14799;SDS011;7491;57.750;11.970;2023-03-20T06:08:40;38.28;;;11.75;;
14799;SDS011;7491;57.750;11.970;2023-03-20T06:11:07;32.30;;;11.63;;
14799;SDS011;7491;57.750;11.970;2023-03-20T06:13:35;45.72;;;12.88;;
14799;SDS011;7491;57.750;11.970;2023-03-20T06:16:03;52.42;;;13.52;;
14799;SDS011;7491;57.750;11.970;2023-03-20T06:18:31;50.38;;;13.63;;
14799;SDS011;7491;57.750;11.970;2023-03-20T06:20:57;57.78;;;14.27;;
14799;SDS011;7491;57.750;11.970;2023-03-20T06:23:26;35.75;;;11.18;;
14799;SDS011;7491;57.750;11.970;2023-03-20T06:25:53;50.60;;;12.27;;
14799;SDS011;7491;57.750;11.970;2023-03-20T06:28:20;50.63;;;13.43;;
14799;SDS011;7491;57.750;11.970;2023-03-20T06:30:46;52.72;;;14.07;;
14799;SDS011;7491;57.750;11.970;2023-03-20T06:33:18;51.53;;;13.48;;
14799;SDS011;7491;57.750;11.970;2023-03-20T06:35:46;38.80;;;12.90;;
14799;SDS011;7491;57.750;11.970;2023-03-20T06:38:13;33.63;;;12.15;;
14799;SDS011;7491;57.750;11.970;2023-03-20T06:40:41;54.10;;;12.35;;
14799;SDS011;7491;57.750;11.970;2023-03-20T06:43:09;29.55;;;12.10;;
14799;SDS011;7491;57.750;11.970;2023-03-20T06:45:36;38.47;;;12.13;;
14799;SDS011;7491;57.750;11.970;2023-03-20T06:48:04;29.13;;;12.38;;
14799;SDS011;7491;57.750;11.970;2023-03-20T06:50:33;40.33;;;12.15;;
14799;SDS011;7491;57.750;11.970;2023-03-20T06:52:59;29.88;;;12.07;;
14799;SDS011;7491;57.750;11.970;2023-03-20T06:55:26;35.75;;;14.13;;
14799;SDS011;7491;57.750;11.970;2023-03-20T06:57:53;28.60;;;12.07;;
14799;SDS011;7491;57.750;11.970;2023-03-20T07:00:19;24.65;;;12.18;;
14799;SDS011;7491;57.750;11.970;2023-03-20T07:02:46;24.83;;;10.77;;
14799;SDS011;7491;57.750;11.970;2023-03-20T07:05:13;30.88;;;11.60;;
14799;SDS011;7491;57.750;11.970;2023-03-20T07:07:42;20.38;;;9.98;;
14799;SDS011;7491;57.750;11.970;2023-03-20T07:10:09;21.25;;;10.18;;
14799;SDS011;7491;57.750;11.970;2023-03-20T07:12:36;24.35;;;10.90;;
14799;SDS011;7491;57.750;11.970;2023-03-20T07:15:03;24.52;;;10.60;;
14799;SDS011;7491;57.750;11.970;2023-03-20T07:17:30;21.75;;;10.27;;
14799;SDS011;7491;57.750;11.970;2023-03-20T07:19:57;29.23;;;11.23;;
14799;SDS011;7491;57.750;11.970;2023-03-20T07:22:25;26.42;;;11.95;;
14799;SDS011;7491;57.750;11.970;2023-03-20T07:24:55;26.77;;;13.23;;
14799;SDS011;7491;57.750;11.970;2023-03-20T07:27:22;24.38;;;12.63;;
14799;SDS011;7491;57.750;11.970;2023-03-20T07:29:49;28.92;;;14.40;;
14799;SDS011;7491;57.750;11.970;2023-03-20T07:32:16;30.55;;;13.48;;
14799;SDS011;7491;57.750;11.970;2023-03-20T07:34:43;28.02;;;12.70;;
14799;SDS011;7491;57.750;11.970;2023-03-20T07:37:11;30.55;;;14.20;;
14799;SDS011;7491;57.750;11.970;2023-03-20T07:39:38;25.08;;;12.80;;
14799;SDS011;7491;57.750;11.970;2023-03-20T07:42:07;21.20;;;10.80;;
14799;SDS011;7491;57.750;11.970;2023-03-20T07:44:33;21.10;;;11.38;;
14799;SDS011;7491;57.750;11.970;2023-03-20T07:47:00;22.98;;;11.63;;
14799;SDS011;7491;57.750;11.970;2023-03-20T07:49:27;21.38;;;10.30;;
14799;SDS011;7491;57.750;11.970;2023-03-20T07:51:54;27.13;;;9.23;;
14799;SDS011;7491;57.750;11.970;2023-03-20T07:54:21;19.02;;;9.10;;
14799;SDS011;7491;57.750;11.970;2023-03-20T07:56:48;23.48;;;9.13;;
14799;SDS011;7491;57.750;11.970;2023-03-20T07:59:16;15.75;;;8.32;;
14799;SDS011;7491;57.750;11.970;2023-03-20T08:01:43;19.58;;;9.02;;
14799;SDS011;7491;57.750;11.970;2023-03-20T08:04:10;18.25;;;9.93;;
14799;SDS011;7491;57.750;11.970;2023-03-20T08:06:36;16.30;;;8.50;;
14799;SDS011;7491;57.750;11.970;2023-03-20T08:09:04;15.32;;;7.90;;
14799;SDS011;7491;57.750;11.970;2023-03-20T08:11:31;16.17;;;7.03;;
14799;SDS011;7491;57.750;11.970;2023-03-20T08:13:58;11.57;;;6.60;;
14799;SDS011;7491;57.750;11.970;2023-03-20T08:16:26;15.25;;;8.15;;
14799;SDS011;7491;57.750;11.970;2023-03-20T08:18:53;14.18;;;6.05;;
14799;SDS011;7491;57.750;11.970;2023-03-20T08:21:25;13.27;;;6.10;;
14799;SDS011;7491;57.750;11.970;2023-03-20T08:23:52;9.13;;;4.50;;
14799;SDS011;7491;57.750;11.970;2023-03-20T08:26:19;13.05;;;5.43;;
14799;SDS011;7491;57.750;11.970;2023-03-20T08:28:46;12.68;;;5.13;;
14799;SDS011;7491;57.750;11.970;2023-03-20T08:31:12;12.80;;;4.25;;
14799;SDS011;7491;57.750;11.970;2023-03-20T08:33:41;14.05;;;4.80;;
14799;SDS011;7491;57.750;11.970;2023-03-20T08:36:07;11.35;;;5.20;;
14799;SDS011;7491;57.750;11.970;2023-03-20T08:38:34;7.18;;;3.42;;
14799;SDS011;7491;57.750;11.970;2023-03-20T08:41:01;5.53;;;3.10;;
14799;SDS011;7491;57.750;11.970;2023-03-20T08:43:28;10.10;;;3.80;;
14799;SDS011;7491;57.750;11.970;2023-03-20T08:45:55;5.88;;;3.42;;
14799;SDS011;7491;57.750;11.970;2023-03-20T08:48:22;9.65;;;3.70;;
14799;SDS011;7491;57.750;11.970;2023-03-20T08:50:51;10.55;;;3.72;;
14799;SDS011;7491;57.750;11.970;2023-03-20T08:53:17;11.20;;;3.45;;
14799;SDS011;7491;57.750;11.970;2023-03-20T08:55:46;8.52;;;3.55;;
14799;SDS011;7491;57.750;11.970;2023-03-20T08:58:14;5.90;;;2.65;;
14799;SDS011;7491;57.750;11.970;2023-03-20T09:00:40;6.03;;;3.00;;
14799;SDS011;7491;57.750;11.970;2023-03-20T09:03:10;4.03;;;2.70;;
14799;SDS011;7491;57.750;11.970;2023-03-20T09:05:38;11.32;;;2.60;;
14799;SDS011;7491;57.750;11.970;2023-03-20T09:08:06;7.40;;;2.90;;
14799;SDS011;7491;57.750;11.970;2023-03-20T09:10:33;10.10;;;3.60;;
14799;SDS011;7491;57.750;11.970;2023-03-20T09:13:00;10.82;;;3.25;;
14799;SDS011;7491;57.750;11.970;2023-03-20T09:15:27;6.10;;;2.60;;
14799;SDS011;7491;57.750;11.970;2023-03-20T09:17:54;7.00;;;2.90;;
14799;SDS011;7491;57.750;11.970;2023-03-20T09:20:20;6.60;;;2.78;;
14799;SDS011;7491;57.750;11.970;2023-03-20T09:22:47;11.65;;;2.97;;
14799;SDS011;7491;57.750;11.970;2023-03-20T09:25:16;8.07;;;2.30;;
14799;SDS011;7491;57.750;11.970;2023-03-20T09:27:43;14.50;;;2.90;;
14799;SDS011;7491;57.750;11.970;2023-03-20T09:30:11;14.40;;;2.45;;
14799;SDS011;7491;57.750;11.970;2023-03-20T09:32:38;10.07;;;2.88;;
14799;SDS011;7491;57.750;11.970;2023-03-20T09:35:05;10.20;;;2.58;;
14799;SDS011;7491;57.750;11.970;2023-03-20T09:37:32;11.80;;;3.50;;
14799;SDS011;7491;57.750;11.970;2023-03-20T09:40:00;8.23;;;2.00;;
14799;SDS011;7491;57.750;11.970;2023-03-20T09:42:31;9.32;;;2.97;;
14799;SDS011;7491;57.750;11.970;2023-03-20T09:45:09;7.85;;;2.30;;
14799;SDS011;7491;57.750;11.970;2023-03-20T09:47:41;7.35;;;2.78;;
14799;SDS011;7491;57.750;11.970;2023-03-20T09:50:16;7.53;;;2.03;;
14799;SDS011;7491;57.750;11.970;2023-03-20T09:52:52;13.65;;;2.63;;
14799;SDS011;7491;57.750;11.970;2023-03-20T09:55:24;8.68;;;2.90;;
14799;SDS011;7491;57.750;11.970;2023-03-20T09:58:01;14.77;;;2.75;;
14799;SDS011;7491;57.750;11.970;2023-03-20T10:00:33;9.70;;;2.70;;
14799;SDS011;7491;57.750;11.970;2023-03-20T10:03:01;8.98;;;2.03;;
14799;SDS011;7491;57.750;11.970;2023-03-20T10:05:30;12.65;;;2.83;;
14799;SDS011;7491;57.750;11.970;2023-03-20T10:08:04;14.77;;;3.00;;
14799;SDS011;7491;57.750;11.970;2023-03-20T10:10:35;13.48;;;2.60;;
14799;SDS011;7491;57.750;11.970;2023-03-20T10:13:19;7.57;;;2.70;;
14799;SDS011;7491;57.750;11.970;2023-03-20T10:16:01;12.57;;;3.40;;
14799;SDS011;7491;57.750;11.970;2023-03-20T10:18:39;12.68;;;2.80;;
14799;SDS011;7491;57.750;11.970;2023-03-20T10:21:15;9.20;;;2.80;;
14799;SDS011;7491;57.750;11.970;2023-03-20T10:23:48;13.07;;;2.25;;
14799;SDS011;7491;57.750;11.970;2023-03-20T10:26:22;9.75;;;2.47;;
14799;SDS011;7491;57.750;11.970;2023-03-20T10:28:52;13.73;;;3.08;;
14799;SDS011;7491;57.750;11.970;2023-03-20T10:31:39;10.80;;;3.15;;
14799;SDS011;7491;57.750;11.970;2023-03-20T10:34:20;12.90;;;2.72;;
14799;SDS011;7491;57.750;11.970;2023-03-20T10:37:00;16.63;;;2.60;;
14799;SDS011;7491;57.750;11.970;2023-03-20T10:39:44;12.35;;;2.80;;
14799;SDS011;7491;57.750;11.970;2023-03-20T10:42:23;10.00;;;2.50;;
14799;SDS011;7491;57.750;11.970;2023-03-20T10:44:57;16.70;;;2.72;;
14799;SDS011;7491;57.750;11.970;2023-03-20T10:47:27;15.82;;;3.00;;
14799;SDS011;7491;57.750;11.970;2023-03-20T10:49:59;12.88;;;2.45;;
14799;SDS011;7491;57.750;11.970;2023-03-20T10:52:30;12.40;;;2.60;;
14799;SDS011;7491;57.750;11.970;2023-03-20T10:55:02;11.48;;;2.63;;
14799;SDS011;7491;57.750;11.970;2023-03-20T10:57:32;13.25;;;2.35;;
14799;SDS011;7491;57.750;11.970;2023-03-20T11:00:04;11.30;;;2.63;;
14799;SDS011;7491;57.750;11.970;2023-03-20T11:02:37;18.63;;;3.17;;
14799;SDS011;7491;57.750;11.970;2023-03-20T11:05:09;11.93;;;2.97;;
14799;SDS011;7491;57.750;11.970;2023-03-20T11:07:48;12.73;;;2.70;;
14799;SDS011;7491;57.750;11.970;2023-03-20T11:10:17;15.55;;;2.88;;
14799;SDS011;7491;57.750;11.970;2023-03-20T11:12:43;12.70;;;3.03;;
14799;SDS011;7491;57.750;11.970;2023-03-20T11:15:22;24.67;;;3.42;;
14799;SDS011;7491;57.750;11.970;2023-03-20T11:17:54;15.90;;;2.83;;
14799;SDS011;7491;57.750;11.970;2023-03-20T11:20:23;14.10;;;3.20;;
14799;SDS011;7491;57.750;11.970;2023-03-20T11:22:55;14.93;;;3.72;;
14799;SDS011;7491;57.750;11.970;2023-03-20T11:25:27;14.85;;;3.33;;
14799;SDS011;7491;57.750;11.970;2023-03-20T11:27:57;14.50;;;3.38;;
14799;SDS011;7491;57.750;11.970;2023-03-20T11:30:58;14.82;;;3.05;;
14799;SDS011;7491;57.750;11.970;2023-03-20T11:33:28;21.80;;;4.05;;
14799;SDS011;7491;57.750;11.970;2023-03-20T11:35:56;16.63;;;3.45;;
14799;SDS011;7491;57.750;11.970;2023-03-20T11:38:24;13.52;;;3.63;;
14799;SDS011;7491;57.750;11.970;2023-03-20T11:40:51;16.50;;;2.58;;
14799;SDS011;7491;57.750;11.970;2023-03-20T11:43:21;18.05;;;3.67;;
14799;SDS011;7491;57.750;11.970;2023-03-20T11:45:49;14.48;;;2.30;;
14799;SDS011;7491;57.750;11.970;2023-03-20T11:48:22;17.23;;;3.60;;
14799;SDS011;7491;57.750;11.970;2023-03-20T11:50:51;11.80;;;2.85;;
14799;SDS011;7491;57.750;11.970;2023-03-20T11:53:26;23.92;;;3.55;;
14799;SDS011;7491;57.750;11.970;2023-03-20T11:56:00;17.92;;;4.45;;
14799;SDS011;7491;57.750;11.970;2023-03-20T11:58:30;10.40;;;3.05;;
14799;SDS011;7491;57.750;11.970;2023-03-20T12:00:57;15.85;;;3.58;;
14799;SDS011;7491;57.750;11.970;2023-03-20T12:03:38;17.65;;;3.33;;
14799;SDS011;7491;57.750;11.970;2023-03-20T12:06:08;20.20;;;4.40;;
14799;SDS011;7491;57.750;11.970;2023-03-20T12:08:40;18.98;;;2.90;;
14799;SDS011;7491;57.750;11.970;2023-03-20T12:11:17;16.08;;;2.60;;
14799;SDS011;7491;57.750;11.970;2023-03-20T12:13:56;13.45;;;2.95;;
14799;SDS011;7491;57.750;11.970;2023-03-20T12:16:26;11.32;;;3.15;;
14799;SDS011;7491;57.750;11.970;2023-03-20T12:18:58;13.00;;;2.60;;
14799;SDS011;7491;57.750;11.970;2023-03-20T12:21:28;11.70;;;2.85;;
14799;SDS011;7491;57.750;11.970;2023-03-20T12:24:01;17.40;;;3.72;;
14799;SDS011;7491;57.750;11.970;2023-03-20T12:26:34;17.15;;;3.25;;
14799;SDS011;7491;57.750;11.970;2023-03-20T12:29:07;12.18;;;2.60;;
14799;SDS011;7491;57.750;11.970;2023-03-20T12:31:43;20.13;;;2.85;;
14799;SDS011;7491;57.750;11.970;2023-03-20T12:34:16;14.80;;;3.00;;
14799;SDS011;7491;57.750;11.970;2023-03-20T12:36:47;15.40;;;3.58;;
14799;SDS011;7491;57.750;11.970;2023-03-20T12:39:17;14.52;;;2.70;;
14799;SDS011;7491;57.750;11.970;2023-03-20T12:41:50;12.10;;;2.67;;
14799;SDS011;7491;57.750;11.970;2023-03-20T12:44:30;14.43;;;2.78;;
14799;SDS011;7491;57.750;11.970;2023-03-20T12:47:16;12.95;;;3.15;;
14799;SDS011;7491;57.750;11.970;2023-03-20T12:49:56;14.05;;;4.10;;
14799;SDS011;7491;57.750;11.970;2023-03-20T12:52:35;16.63;;;2.72;;
14799;SDS011;7491;57.750;11.970;2023-03-20T12:55:19;19.90;;;3.50;;
14799;SDS011;7491;57.750;11.970;2023-03-20T12:57:54;16.85;;;3.60;;
14799;SDS011;7491;57.750;11.970;2023-03-20T13:00:32;11.43;;;2.90;;
14799;SDS011;7491;57.750;11.970;2023-03-20T13:03:06;14.50;;;3.58;;
14799;SDS011;7491;57.750;11.970;2023-03-20T13:05:47;15.90;;;3.35;;
14799;SDS011;7491;57.750;11.970;2023-03-20T13:11:15;16.48;;;3.30;;
14799;SDS011;7491;57.750;11.970;2023-03-20T13:13:51;16.30;;;3.38;;
14799;SDS011;7491;57.750;11.970;2023-03-20T13:16:23;15.43;;;2.92;;
14799;SDS011;7491;57.750;11.970;2023-03-20T13:19:04;13.82;;;3.00;;
14799;SDS011;7491;57.750;11.970;2023-03-20T13:21:37;19.52;;;3.13;;
14799;SDS011;7491;57.750;11.970;2023-03-20T13:24:18;14.27;;;3.00;;
14799;SDS011;7491;57.750;11.970;2023-03-20T13:26:51;17.60;;;4.00;;
14799;SDS011;7491;57.750;11.970;2023-03-20T13:29:28;19.58;;;4.25;;
14799;SDS011;7491;57.750;11.970;2023-03-20T13:32:02;17.17;;;2.97;;
14799;SDS011;7491;57.750;11.970;2023-03-20T13:34:44;19.95;;;3.58;;
14799;SDS011;7491;57.750;11.970;2023-03-20T13:37:22;20.05;;;4.15;;
14799;SDS011;7491;57.750;11.970;2023-03-20T13:39:59;19.35;;;3.10;;
14799;SDS011;7491;57.750;11.970;2023-03-20T13:42:32;20.70;;;4.10;;
14799;SDS011;7491;57.750;11.970;2023-03-20T13:45:04;19.10;;;3.63;;
14799;SDS011;7491;57.750;11.970;2023-03-20T13:47:38;22.00;;;3.80;;
14799;SDS011;7491;57.750;11.970;2023-03-20T13:50:11;20.52;;;3.40;;
14799;SDS011;7491;57.750;11.970;2023-03-20T13:52:51;16.55;;;3.17;;
14799;SDS011;7491;57.750;11.970;2023-03-20T13:55:25;15.88;;;3.13;;
14799;SDS011;7491;57.750;11.970;2023-03-20T13:58:04;18.27;;;3.90;;
14799;SDS011;7491;57.750;11.970;2023-03-20T14:00:44;15.98;;;3.08;;
14799;SDS011;7491;57.750;11.970;2023-03-20T14:03:20;20.40;;;3.25;;
14799;SDS011;7491;57.750;11.970;2023-03-20T14:05:52;21.63;;;3.28;;
14799;SDS011;7491;57.750;11.970;2023-03-20T14:08:22;17.17;;;4.03;;
14799;SDS011;7491;57.750;11.970;2023-03-20T14:11:11;18.75;;;3.03;;
14799;SDS011;7491;57.750;11.970;2023-03-20T14:13:57;18.42;;;3.50;;
14799;SDS011;7491;57.750;11.970;2023-03-20T14:16:29;12.77;;;2.90;;
14799;SDS011;7491;57.750;11.970;2023-03-20T14:19:03;14.90;;;3.25;;
14799;SDS011;7491;57.750;11.970;2023-03-20T14:21:32;13.60;;;2.83;;
14799;SDS011;7491;57.750;11.970;2023-03-20T14:24:02;7.93;;;1.65;;
14799;SDS011;7491;57.750;11.970;2023-03-20T14:26:33;12.05;;;2.17;;
14799;SDS011;7491;57.750;11.970;2023-03-20T14:31:47;13.50;;;2.70;;
14799;SDS011;7491;57.750;11.970;2023-03-20T14:34:16;13.45;;;2.35;;
14799;SDS011;7491;57.750;11.970;2023-03-20T14:36:56;14.48;;;2.22;;
14799;SDS011;7491;57.750;11.970;2023-03-20T14:42:18;18.23;;;3.30;;
14799;SDS011;7491;57.750;11.970;2023-03-20T14:44:57;9.95;;;2.40;;
14799;SDS011;7491;57.750;11.970;2023-03-20T14:47:42;16.30;;;3.20;;
14799;SDS011;7491;57.750;11.970;2023-03-20T14:50:17;17.58;;;2.22;;
14799;SDS011;7491;57.750;11.970;2023-03-20T14:52:54;15.82;;;2.80;;
14799;SDS011;7491;57.750;11.970;2023-03-20T14:55:35;18.55;;;3.03;;
14799;SDS011;7491;57.750;11.970;2023-03-20T15:01:15;19.58;;;3.00;;
14799;SDS011;7491;57.750;11.970;2023-03-20T15:03:44;16.30;;;2.95;;
14799;SDS011;7491;57.750;11.970;2023-03-20T15:06:16;17.77;;;3.03;;
14799;SDS011;7491;57.750;11.970;2023-03-20T15:08:46;12.75;;;2.70;;
14799;SDS011;7491;57.750;11.970;2023-03-20T15:11:17;15.23;;;2.55;;
14799;SDS011;7491;57.750;11.970;2023-03-20T15:13:46;14.60;;;2.80;;
14799;SDS011;7491;57.750;11.970;2023-03-20T15:16:14;11.32;;;2.83;;
14799;SDS011;7491;57.750;11.970;2023-03-20T15:18:42;10.10;;;2.58;;
14799;SDS011;7491;57.750;11.970;2023-03-20T15:21:11;17.85;;;3.00;;
14799;SDS011;7491;57.750;11.970;2023-03-20T15:23:42;16.50;;;2.88;;
14799;SDS011;7491;57.750;11.970;2023-03-20T15:26:09;12.65;;;2.45;;
14799;SDS011;7491;57.750;11.970;2023-03-20T15:28:37;17.90;;;2.90;;
14799;SDS011;7491;57.750;11.970;2023-03-20T15:31:04;14.80;;;2.65;;
14799;SDS011;7491;57.750;11.970;2023-03-20T15:33:33;16.75;;;2.90;;
14799;SDS011;7491;57.750;11.970;2023-03-20T15:36:08;20.63;;;3.25;;
14799;SDS011;7491;57.750;11.970;2023-03-20T15:38:40;18.42;;;2.50;;
14799;SDS011;7491;57.750;11.970;2023-03-20T15:41:07;14.25;;;2.22;;
14799;SDS011;7491;57.750;11.970;2023-03-20T15:43:50;12.30;;;3.70;;
14799;SDS011;7491;57.750;11.970;2023-03-20T15:46:16;16.05;;;2.30;;
14799;SDS011;7491;57.750;11.970;2023-03-20T15:48:47;17.58;;;3.95;;
14799;SDS011;7491;57.750;11.970;2023-03-20T15:51:14;14.93;;;2.67;;
14799;SDS011;7491;57.750;11.970;2023-03-20T15:53:41;15.95;;;2.75;;
14799;SDS011;7491;57.750;11.970;2023-03-20T15:56:11;19.83;;;2.72;;
14799;SDS011;7491;57.750;11.970;2023-03-20T15:58:40;16.52;;;2.83;;
14799;SDS011;7491;57.750;11.970;2023-03-20T16:01:10;15.02;;;3.13;;